Hemmingford, Canada
Current Conditions -  °F | °C
As of 8:15 AM on Thursday 23 Oct 2014 (Local Time) from KFSO Reporting Station
Overcast Overcast  
Wind Chill: 36°   Ceiling: 6500
Heat Index: 42°   Visibility: 10mi
Dew Point: 37°   Wind: 12mph
Humidity: 82%   Direction: 360°N
Pressure: 30.02"   Gusts: 16mph
Location:  45.05°N, 73.6°W
Report Text: KFSO 231215Z AUTO 36010G14KT 10SM OVC065 06/03 A3002 RMK AO2 T00580030
Loading
Personal Weather Stations






























Interactive Weather Map
Tropical Storm Tracking
New forecast layout! Learn more

10-Day Weather Forecast

Advertisements
Track Severe Weather on mobile